sensor_id;sensor_type;location;lat;lon;timestamp;P1;durP1;ratioP1;P2;durP2;ratioP2
18210;SDS011;9231;48.852;9.882;2022-07-22T00:01:03;411.33;;;275.13;;
18210;SDS011;9231;48.852;9.882;2022-07-22T00:03:30;409.23;;;271.73;;
18210;SDS011;9231;48.852;9.882;2022-07-22T00:05:56;404.03;;;261.07;;
18210;SDS011;9231;48.852;9.882;2022-07-22T00:08:24;409.47;;;268.40;;
18210;SDS011;9231;48.852;9.882;2022-07-22T00:10:50;425.67;;;283.33;;
18210;SDS011;9231;48.852;9.882;2022-07-22T00:13:17;408.33;;;267.30;;
18210;SDS011;9231;48.852;9.882;2022-07-22T00:15:43;397.43;;;238.80;;
18210;SDS011;9231;48.852;9.882;2022-07-22T00:18:10;401.87;;;254.27;;
18210;SDS011;9231;48.852;9.882;2022-07-22T00:20:36;400.37;;;249.03;;
18210;SDS011;9231;48.852;9.882;2022-07-22T00:23:03;402.00;;;254.77;;
18210;SDS011;9231;48.852;9.882;2022-07-22T00:25:31;401.13;;;245.93;;
18210;SDS011;9231;48.852;9.882;2022-07-22T00:27:57;400.30;;;245.27;;
18210;SDS011;9231;48.852;9.882;2022-07-22T00:30:24;403.83;;;244.20;;
18210;SDS011;9231;48.852;9.882;2022-07-22T00:32:50;401.30;;;237.93;;
18210;SDS011;9231;48.852;9.882;2022-07-22T00:35:17;400.90;;;240.27;;
18210;SDS011;9231;48.852;9.882;2022-07-22T00:37:43;402.73;;;242.13;;
18210;SDS011;9231;48.852;9.882;2022-07-22T00:40:10;399.67;;;241.07;;
18210;SDS011;9231;48.852;9.882;2022-07-22T00:42:39;400.23;;;239.30;;
18210;SDS011;9231;48.852;9.882;2022-07-22T00:45:06;400.73;;;233.10;;
18210;SDS011;9231;48.852;9.882;2022-07-22T00:47:33;399.33;;;233.50;;
18210;SDS011;9231;48.852;9.882;2022-07-22T00:49:59;401.40;;;238.47;;
18210;SDS011;9231;48.852;9.882;2022-07-22T00:52:26;401.43;;;230.03;;
18210;SDS011;9231;48.852;9.882;2022-07-22T00:54:53;396.27;;;235.73;;
18210;SDS011;9231;48.852;9.882;2022-07-22T00:57:21;395.27;;;228.33;;
18210;SDS011;9231;48.852;9.882;2022-07-22T00:59:49;403.63;;;233.00;;
18210;SDS011;9231;48.852;9.882;2022-07-22T01:02:15;405.17;;;232.07;;
18210;SDS011;9231;48.852;9.882;2022-07-22T01:04:42;401.33;;;223.77;;
18210;SDS011;9231;48.852;9.882;2022-07-22T01:07:08;394.83;;;222.10;;
18210;SDS011;9231;48.852;9.882;2022-07-22T01:09:35;404.87;;;229.17;;
18210;SDS011;9231;48.852;9.882;2022-07-22T01:12:02;404.93;;;226.57;;
18210;SDS011;9231;48.852;9.882;2022-07-22T01:14:29;402.30;;;230.33;;
18210;SDS011;9231;48.852;9.882;2022-07-22T01:16:56;404.10;;;228.37;;
18210;SDS011;9231;48.852;9.882;2022-07-22T01:19:23;401.97;;;229.53;;
18210;SDS011;9231;48.852;9.882;2022-07-22T01:21:51;407.63;;;227.57;;
18210;SDS011;9231;48.852;9.882;2022-07-22T01:24:17;409.33;;;232.87;;
18210;SDS011;9231;48.852;9.882;2022-07-22T01:26:44;404.80;;;227.73;;
18210;SDS011;9231;48.852;9.882;2022-07-22T01:29:10;402.47;;;227.43;;
18210;SDS011;9231;48.852;9.882;2022-07-22T01:31:36;407.03;;;228.60;;
18210;SDS011;9231;48.852;9.882;2022-07-22T01:34:03;409.63;;;223.27;;
18210;SDS011;9231;48.852;9.882;2022-07-22T01:36:29;408.60;;;225.07;;
18210;SDS011;9231;48.852;9.882;2022-07-22T01:38:57;404.43;;;223.07;;
18210;SDS011;9231;48.852;9.882;2022-07-22T01:41:24;404.13;;;216.97;;
18210;SDS011;9231;48.852;9.882;2022-07-22T01:43:50;401.83;;;214.03;;
18210;SDS011;9231;48.852;9.882;2022-07-22T01:46:17;401.27;;;214.07;;
18210;SDS011;9231;48.852;9.882;2022-07-22T01:48:44;407.23;;;214.43;;
18210;SDS011;9231;48.852;9.882;2022-07-22T01:51:10;402.47;;;218.17;;
18210;SDS011;9231;48.852;9.882;2022-07-22T01:53:36;402.43;;;210.33;;
18210;SDS011;9231;48.852;9.882;2022-07-22T01:56:05;402.40;;;210.80;;
18210;SDS011;9231;48.852;9.882;2022-07-22T01:58:31;404.27;;;209.93;;
18210;SDS011;9231;48.852;9.882;2022-07-22T02:00:58;409.40;;;216.87;;
18210;SDS011;9231;48.852;9.882;2022-07-22T02:03:24;402.07;;;206.63;;
18210;SDS011;9231;48.852;9.882;2022-07-22T02:05:50;410.23;;;210.13;;
18210;SDS011;9231;48.852;9.882;2022-07-22T02:08:17;398.57;;;201.83;;
18210;SDS011;9231;48.852;9.882;2022-07-22T02:10:44;450.53;;;368.00;;
18210;SDS011;9231;48.852;9.882;2022-07-22T02:13:12;405.90;;;215.33;;
18210;SDS011;9231;48.852;9.882;2022-07-22T02:15:38;398.33;;;205.50;;
18210;SDS011;9231;48.852;9.882;2022-07-22T02:18:11;403.23;;;210.67;;
18210;SDS011;9231;48.852;9.882;2022-07-22T02:20:38;415.20;;;229.50;;
18210;SDS011;9231;48.852;9.882;2022-07-22T02:23:04;406.80;;;217.87;;
18210;SDS011;9231;48.852;9.882;2022-07-22T02:25:31;415.17;;;220.87;;
18210;SDS011;9231;48.852;9.882;2022-07-22T02:27:57;416.13;;;229.57;;
18210;SDS011;9231;48.852;9.882;2022-07-22T02:30:25;419.97;;;242.27;;
18210;SDS011;9231;48.852;9.882;2022-07-22T02:32:51;415.77;;;225.93;;
18210;SDS011;9231;48.852;9.882;2022-07-22T02:35:18;416.53;;;230.50;;
18210;SDS011;9231;48.852;9.882;2022-07-22T02:37:44;418.40;;;248.30;;
18210;SDS011;9231;48.852;9.882;2022-07-22T02:40:11;414.43;;;224.53;;
18210;SDS011;9231;48.852;9.882;2022-07-22T02:42:37;419.93;;;258.43;;
18210;SDS011;9231;48.852;9.882;2022-07-22T02:45:04;425.37;;;273.00;;
18210;SDS011;9231;48.852;9.882;2022-07-22T02:47:32;426.10;;;290.07;;
18210;SDS011;9231;48.852;9.882;2022-07-22T02:49:59;423.33;;;275.73;;
18210;SDS011;9231;48.852;9.882;2022-07-22T02:52:25;432.00;;;305.03;;
18210;SDS011;9231;48.852;9.882;2022-07-22T02:54:51;423.17;;;260.93;;
18210;SDS011;9231;48.852;9.882;2022-07-22T02:57:18;428.60;;;301.27;;
18210;SDS011;9231;48.852;9.882;2022-07-22T02:59:44;433.57;;;298.83;;
18210;SDS011;9231;48.852;9.882;2022-07-22T03:02:11;433.47;;;309.47;;
18210;SDS011;9231;48.852;9.882;2022-07-22T03:04:39;439.97;;;328.37;;
18210;SDS011;9231;48.852;9.882;2022-07-22T03:07:05;431.90;;;318.90;;
18210;SDS011;9231;48.852;9.882;2022-07-22T03:09:32;444.53;;;362.83;;
18210;SDS011;9231;48.852;9.882;2022-07-22T03:11:58;442.23;;;348.30;;
18210;SDS011;9231;48.852;9.882;2022-07-22T03:14:24;446.07;;;351.60;;
18210;SDS011;9231;48.852;9.882;2022-07-22T03:16:51;439.20;;;340.83;;
18210;SDS011;9231;48.852;9.882;2022-07-22T03:19:17;434.80;;;334.20;;
18210;SDS011;9231;48.852;9.882;2022-07-22T03:21:45;435.67;;;302.63;;
18210;SDS011;9231;48.852;9.882;2022-07-22T03:24:12;424.87;;;289.83;;
18210;SDS011;9231;48.852;9.882;2022-07-22T03:26:38;427.70;;;291.33;;
18210;SDS011;9231;48.852;9.882;2022-07-22T03:29:05;428.57;;;273.13;;
18210;SDS011;9231;48.852;9.882;2022-07-22T03:31:31;431.87;;;303.87;;
18210;SDS011;9231;48.852;9.882;2022-07-22T03:33:58;428.03;;;315.67;;
18210;SDS011;9231;48.852;9.882;2022-07-22T03:36:26;430.57;;;309.00;;
18210;SDS011;9231;48.852;9.882;2022-07-22T03:38:53;434.13;;;315.67;;
18210;SDS011;9231;48.852;9.882;2022-07-22T03:41:20;442.37;;;347.13;;
18210;SDS011;9231;48.852;9.882;2022-07-22T03:43:46;441.93;;;339.90;;
18210;SDS011;9231;48.852;9.882;2022-07-22T03:46:13;438.03;;;337.37;;
18210;SDS011;9231;48.852;9.882;2022-07-22T03:48:39;447.87;;;362.17;;
18210;SDS011;9231;48.852;9.882;2022-07-22T03:51:06;447.67;;;348.30;;
18210;SDS011;9231;48.852;9.882;2022-07-22T03:53:32;451.33;;;374.37;;
18210;SDS011;9231;48.852;9.882;2022-07-22T03:56:00;450.83;;;369.40;;
18210;SDS011;9231;48.852;9.882;2022-07-22T03:58:26;451.67;;;369.20;;
18210;SDS011;9231;48.852;9.882;2022-07-22T04:00:53;464.77;;;378.13;;
18210;SDS011;9231;48.852;9.882;2022-07-22T04:03:20;456.27;;;384.20;;
18210;SDS011;9231;48.852;9.882;2022-07-22T04:05:46;450.47;;;377.83;;
18210;SDS011;9231;48.852;9.882;2022-07-22T04:08:13;452.10;;;380.33;;
18210;SDS011;9231;48.852;9.882;2022-07-22T04:10:39;460.20;;;390.27;;
18210;SDS011;9231;48.852;9.882;2022-07-22T04:13:07;446.87;;;350.70;;
18210;SDS011;9231;48.852;9.882;2022-07-22T04:15:33;452.03;;;378.37;;
18210;SDS011;9231;48.852;9.882;2022-07-22T04:18:00;449.80;;;373.27;;
18210;SDS011;9231;48.852;9.882;2022-07-22T04:20:26;456.10;;;380.30;;
18210;SDS011;9231;48.852;9.882;2022-07-22T04:22:53;457.33;;;376.40;;
18210;SDS011;9231;48.852;9.882;2022-07-22T04:25:19;453.33;;;359.77;;
18210;SDS011;9231;48.852;9.882;2022-07-22T04:27:46;449.87;;;369.20;;
18210;SDS011;9231;48.852;9.882;2022-07-22T04:30:13;452.60;;;372.23;;
18210;SDS011;9231;48.852;9.882;2022-07-22T04:32:40;443.20;;;341.67;;
18210;SDS011;9231;48.852;9.882;2022-07-22T04:35:07;438.33;;;338.07;;
18210;SDS011;9231;48.852;9.882;2022-07-22T04:37:34;450.07;;;366.87;;
18210;SDS011;9231;48.852;9.882;2022-07-22T04:40:00;442.90;;;327.73;;
18210;SDS011;9231;48.852;9.882;2022-07-22T04:42:27;431.77;;;311.43;;
18210;SDS011;9231;48.852;9.882;2022-07-22T04:44:53;419.97;;;280.73;;
18210;SDS011;9231;48.852;9.882;2022-07-22T04:47:21;419.17;;;242.03;;
18210;SDS011;9231;48.852;9.882;2022-07-22T04:49:47;416.23;;;225.63;;
18210;SDS011;9231;48.852;9.882;2022-07-22T04:52:14;410.87;;;220.23;;
18210;SDS011;9231;48.852;9.882;2022-07-22T04:54:40;410.97;;;225.87;;
18210;SDS011;9231;48.852;9.882;2022-07-22T04:57:07;409.47;;;219.03;;
18210;SDS011;9231;48.852;9.882;2022-07-22T04:59:33;410.67;;;215.47;;
18210;SDS011;9231;48.852;9.882;2022-07-22T05:01:59;410.33;;;225.93;;
18210;SDS011;9231;48.852;9.882;2022-07-22T05:04:27;407.90;;;207.60;;
18210;SDS011;9231;48.852;9.882;2022-07-22T05:06:54;411.23;;;215.63;;
18210;SDS011;9231;48.852;9.882;2022-07-22T05:09:20;406.77;;;213.37;;
18210;SDS011;9231;48.852;9.882;2022-07-22T05:11:47;401.73;;;205.03;;
18210;SDS011;9231;48.852;9.882;2022-07-22T05:14:13;400.70;;;200.27;;
18210;SDS011;9231;48.852;9.882;2022-07-22T05:16:40;406.63;;;208.17;;
18210;SDS011;9231;48.852;9.882;2022-07-22T05:19:06;405.17;;;204.77;;
18210;SDS011;9231;48.852;9.882;2022-07-22T05:21:34;406.00;;;202.93;;
18210;SDS011;9231;48.852;9.882;2022-07-22T05:24:00;412.10;;;213.27;;
18210;SDS011;9231;48.852;9.882;2022-07-22T05:26:27;410.13;;;208.57;;
18210;SDS011;9231;48.852;9.882;2022-07-22T05:28:54;407.80;;;202.97;;
18210;SDS011;9231;48.852;9.882;2022-07-22T05:31:21;407.13;;;194.87;;
18210;SDS011;9231;48.852;9.882;2022-07-22T05:33:48;404.80;;;197.63;;
18210;SDS011;9231;48.852;9.882;2022-07-22T05:36:14;398.93;;;194.47;;
18210;SDS011;9231;48.852;9.882;2022-07-22T05:38:42;404.00;;;201.93;;
18210;SDS011;9231;48.852;9.882;2022-07-22T05:41:08;408.60;;;208.03;;
18210;SDS011;9231;48.852;9.882;2022-07-22T05:43:35;409.03;;;206.57;;
18210;SDS011;9231;48.852;9.882;2022-07-22T05:46:01;408.63;;;204.57;;
18210;SDS011;9231;48.852;9.882;2022-07-22T05:48:28;403.57;;;199.33;;
18210;SDS011;9231;48.852;9.882;2022-07-22T05:50:54;424.03;;;218.63;;
18210;SDS011;9231;48.852;9.882;2022-07-22T05:53:21;409.13;;;208.50;;
18210;SDS011;9231;48.852;9.882;2022-07-22T05:55:48;414.43;;;219.00;;
18210;SDS011;9231;48.852;9.882;2022-07-22T05:58:15;410.70;;;210.17;;
18210;SDS011;9231;48.852;9.882;2022-07-22T06:00:42;423.77;;;232.33;;
18210;SDS011;9231;48.852;9.882;2022-07-22T06:03:08;414.77;;;216.70;;
18210;SDS011;9231;48.852;9.882;2022-07-22T06:05:35;410.10;;;211.87;;
18210;SDS011;9231;48.852;9.882;2022-07-22T06:08:01;406.80;;;217.70;;
18210;SDS011;9231;48.852;9.882;2022-07-22T06:10:28;401.57;;;214.07;;
18210;SDS011;9231;48.852;9.882;2022-07-22T06:12:56;409.77;;;223.97;;
18210;SDS011;9231;48.852;9.882;2022-07-22T06:15:22;409.83;;;226.90;;
18210;SDS011;9231;48.852;9.882;2022-07-22T06:17:49;403.27;;;224.60;;
18210;SDS011;9231;48.852;9.882;2022-07-22T06:20:15;408.47;;;224.67;;
18210;SDS011;9231;48.852;9.882;2022-07-22T06:22:42;408.90;;;228.60;;
18210;SDS011;9231;48.852;9.882;2022-07-22T06:25:08;401.47;;;225.67;;
18210;SDS011;9231;48.852;9.882;2022-07-22T06:27:35;402.70;;;241.90;;
18210;SDS011;9231;48.852;9.882;2022-07-22T06:30:03;409.67;;;253.40;;
18210;SDS011;9231;48.852;9.882;2022-07-22T06:32:30;410.40;;;255.33;;
18210;SDS011;9231;48.852;9.882;2022-07-22T06:34:56;412.33;;;252.47;;
18210;SDS011;9231;48.852;9.882;2022-07-22T06:37:23;411.37;;;253.87;;
18210;SDS011;9231;48.852;9.882;2022-07-22T06:39:49;412.20;;;264.77;;
18210;SDS011;9231;48.852;9.882;2022-07-22T06:42:16;400.73;;;252.37;;
18210;SDS011;9231;48.852;9.882;2022-07-22T06:44:42;410.93;;;258.27;;
18210;SDS011;9231;48.852;9.882;2022-07-22T06:47:10;415.93;;;262.17;;
18210;SDS011;9231;48.852;9.882;2022-07-22T06:49:36;414.17;;;265.63;;
18210;SDS011;9231;48.852;9.882;2022-07-22T06:52:03;404.23;;;254.23;;
18210;SDS011;9231;48.852;9.882;2022-07-22T06:54:29;413.33;;;261.53;;
18210;SDS011;9231;48.852;9.882;2022-07-22T06:56:56;411.63;;;259.87;;
18210;SDS011;9231;48.852;9.882;2022-07-22T06:59:23;412.57;;;268.37;;
18210;SDS011;9231;48.852;9.882;2022-07-22T07:01:49;416.70;;;273.67;;
18210;SDS011;9231;48.852;9.882;2022-07-22T07:04:17;414.77;;;275.80;;
18210;SDS011;9231;48.852;9.882;2022-07-22T07:06:44;412.70;;;277.50;;
18210;SDS011;9231;48.852;9.882;2022-07-22T07:09:10;408.93;;;268.90;;
18210;SDS011;9231;48.852;9.882;2022-07-22T07:11:37;411.33;;;274.70;;
18210;SDS011;9231;48.852;9.882;2022-07-22T07:14:03;414.27;;;281.37;;
18210;SDS011;9231;48.852;9.882;2022-07-22T07:16:30;407.00;;;279.60;;
18210;SDS011;9231;48.852;9.882;2022-07-22T07:18:56;411.77;;;291.40;;
18210;SDS011;9231;48.852;9.882;2022-07-22T07:21:24;417.23;;;295.23;;
18210;SDS011;9231;48.852;9.882;2022-07-22T07:23:51;421.67;;;297.30;;
18210;SDS011;9231;48.852;9.882;2022-07-22T07:26:17;427.73;;;310.30;;
18210;SDS011;9231;48.852;9.882;2022-07-22T07:28:44;416.23;;;295.23;;
18210;SDS011;9231;48.852;9.882;2022-07-22T07:31:11;419.40;;;301.83;;
18210;SDS011;9231;48.852;9.882;2022-07-22T07:33:37;419.80;;;301.87;;
18210;SDS011;9231;48.852;9.882;2022-07-22T07:36:04;419.97;;;309.07;;
18210;SDS011;9231;48.852;9.882;2022-07-22T07:38:32;422.33;;;309.60;;
18210;SDS011;9231;48.852;9.882;2022-07-22T07:41:00;425.53;;;316.83;;
18210;SDS011;9231;48.852;9.882;2022-07-22T07:43:26;426.23;;;336.17;;
18210;SDS011;9231;48.852;9.882;2022-07-22T07:45:53;424.60;;;342.60;;
18210;SDS011;9231;48.852;9.882;2022-07-22T07:48:19;430.90;;;346.90;;
18210;SDS011;9231;48.852;9.882;2022-07-22T07:50:46;436.43;;;362.00;;
18210;SDS011;9231;48.852;9.882;2022-07-22T07:53:13;437.20;;;364.13;;
18210;SDS011;9231;48.852;9.882;2022-07-22T07:55:41;429.57;;;359.17;;
18210;SDS011;9231;48.852;9.882;2022-07-22T07:58:07;434.70;;;367.83;;
18210;SDS011;9231;48.852;9.882;2022-07-22T08:00:34;435.23;;;372.00;;
18210;SDS011;9231;48.852;9.882;2022-07-22T08:03:01;433.30;;;377.93;;
18210;SDS011;9231;48.852;9.882;2022-07-22T08:05:28;437.63;;;388.03;;
18210;SDS011;9231;48.852;9.882;2022-07-22T08:07:54;439.67;;;387.90;;
18210;SDS011;9231;48.852;9.882;2022-07-22T08:10:21;450.60;;;401.53;;
18210;SDS011;9231;48.852;9.882;2022-07-22T08:12:50;452.10;;;402.83;;
18210;SDS011;9231;48.852;9.882;2022-07-22T08:15:16;444.77;;;395.87;;
18210;SDS011;9231;48.852;9.882;2022-07-22T08:17:43;454.57;;;405.40;;
18210;SDS011;9231;48.852;9.882;2022-07-22T08:20:09;456.80;;;408.07;;
18210;SDS011;9231;48.852;9.882;2022-07-22T08:22:36;471.17;;;422.07;;
18210;SDS011;9231;48.852;9.882;2022-07-22T08:25:02;466.67;;;417.63;;
18210;SDS011;9231;48.852;9.882;2022-07-22T08:27:29;476.60;;;427.40;;
18210;SDS011;9231;48.852;9.882;2022-07-22T08:29:57;492.20;;;442.47;;
18210;SDS011;9231;48.852;9.882;2022-07-22T08:32:24;490.30;;;440.90;;
18210;SDS011;9231;48.852;9.882;2022-07-22T08:34:50;490.53;;;440.97;;
18210;SDS011;9231;48.852;9.882;2022-07-22T08:37:17;502.27;;;452.77;;
18210;SDS011;9231;48.852;9.882;2022-07-22T08:39:44;501.60;;;451.90;;
18210;SDS011;9231;48.852;9.882;2022-07-22T08:42:11;516.67;;;466.63;;
18210;SDS011;9231;48.852;9.882;2022-07-22T08:44:39;524.40;;;473.73;;
18210;SDS011;9231;48.852;9.882;2022-07-22T08:47:07;513.50;;;463.90;;
18210;SDS011;9231;48.852;9.882;2022-07-22T08:49:33;861.10;;;802.13;;
18210;SDS011;9231;48.852;9.882;2022-07-22T08:52:00;595.03;;;543.27;;
18210;SDS011;9231;48.852;9.882;2022-07-22T08:54:26;565.93;;;514.97;;
18210;SDS011;9231;48.852;9.882;2022-07-22T08:56:53;554.90;;;504.17;;
18210;SDS011;9231;48.852;9.882;2022-07-22T08:59:19;557.13;;;506.50;;
18210;SDS011;9231;48.852;9.882;2022-07-22T09:02:01;547.13;;;496.90;;
18210;SDS011;9231;48.852;9.882;2022-07-22T09:04:29;557.67;;;507.10;;
18210;SDS011;9231;48.852;9.882;2022-07-22T09:06:56;555.63;;;505.37;;
18210;SDS011;9231;48.852;9.882;2022-07-22T09:09:28;558.67;;;508.10;;
18210;SDS011;9231;48.852;9.882;2022-07-22T09:12:03;562.50;;;511.80;;
18210;SDS011;9231;48.852;9.882;2022-07-22T09:14:33;577.17;;;526.20;;
18210;SDS011;9231;48.852;9.882;2022-07-22T09:17:09;574.77;;;523.77;;
18210;SDS011;9231;48.852;9.882;2022-07-22T09:19:49;576.63;;;526.00;;
18210;SDS011;9231;48.852;9.882;2022-07-22T09:22:16;594.03;;;542.40;;
18210;SDS011;9231;48.852;9.882;2022-07-22T09:24:56;577.40;;;526.70;;
18210;SDS011;9231;48.852;9.882;2022-07-22T09:27:23;596.23;;;545.00;;
18210;SDS011;9231;48.852;9.882;2022-07-22T09:29:50;602.13;;;550.73;;
18210;SDS011;9231;48.852;9.882;2022-07-22T09:32:18;604.43;;;553.00;;
18210;SDS011;9231;48.852;9.882;2022-07-22T09:34:44;617.33;;;566.00;;
18210;SDS011;9231;48.852;9.882;2022-07-22T09:37:12;621.00;;;569.53;;
18210;SDS011;9231;48.852;9.882;2022-07-22T09:39:39;622.87;;;571.57;;
18210;SDS011;9231;48.852;9.882;2022-07-22T09:42:06;643.47;;;591.43;;
18210;SDS011;9231;48.852;9.882;2022-07-22T09:44:33;639.33;;;587.83;;
18210;SDS011;9231;48.852;9.882;2022-07-22T09:47:00;638.27;;;586.53;;
18210;SDS011;9231;48.852;9.882;2022-07-22T09:49:30;643.27;;;591.33;;
18210;SDS011;9231;48.852;9.882;2022-07-22T09:51:56;652.83;;;600.13;;
18210;SDS011;9231;48.852;9.882;2022-07-22T09:54:24;642.67;;;590.97;;
18210;SDS011;9231;48.852;9.882;2022-07-22T09:56:51;658.43;;;606.27;;
18210;SDS011;9231;48.852;9.882;2022-07-22T09:59:18;662.93;;;610.50;;
18210;SDS011;9231;48.852;9.882;2022-07-22T10:01:44;660.73;;;608.40;;
18210;SDS011;9231;48.852;9.882;2022-07-22T10:04:12;659.57;;;607.40;;
18210;SDS011;9231;48.852;9.882;2022-07-22T10:06:38;666.80;;;614.60;;
18210;SDS011;9231;48.852;9.882;2022-07-22T10:09:05;676.03;;;622.90;;
18210;SDS011;9231;48.852;9.882;2022-07-22T10:11:34;681.13;;;628.47;;
18210;SDS011;9231;48.852;9.882;2022-07-22T10:14:02;684.23;;;631.83;;
18210;SDS011;9231;48.852;9.882;2022-07-22T10:16:29;688.27;;;635.23;;
18210;SDS011;9231;48.852;9.882;2022-07-22T10:18:56;677.13;;;624.60;;
18210;SDS011;9231;48.852;9.882;2022-07-22T10:21:30;692.37;;;639.67;;
18210;SDS011;9231;48.852;9.882;2022-07-22T10:24:07;704.93;;;651.53;;
18210;SDS011;9231;48.852;9.882;2022-07-22T10:26:47;700.33;;;647.97;;
18210;SDS011;9231;48.852;9.882;2022-07-22T10:29:29;701.10;;;648.63;;
18210;SDS011;9231;48.852;9.882;2022-07-22T10:34:41;712.73;;;659.73;;
18210;SDS011;9231;48.852;9.882;2022-07-22T10:42:36;748.37;;;694.30;;
18210;SDS011;9231;48.852;9.882;2022-07-22T10:45:23;740.63;;;687.33;;
18210;SDS011;9231;48.852;9.882;2022-07-22T10:47:53;753.77;;;699.80;;
18210;SDS011;9231;48.852;9.882;2022-07-22T10:50:42;774.00;;;719.07;;
18210;SDS011;9231;48.852;9.882;2022-07-22T10:53:10;757.87;;;703.67;;
18210;SDS011;9231;48.852;9.882;2022-07-22T10:55:37;767.37;;;712.57;;
18210;SDS011;9231;48.852;9.882;2022-07-22T11:00:46;784.03;;;728.77;;
18210;SDS011;9231;48.852;9.882;2022-07-22T11:03:22;785.80;;;730.50;;
18210;SDS011;9231;48.852;9.882;2022-07-22T11:05:49;784.40;;;729.63;;
18210;SDS011;9231;48.852;9.882;2022-07-22T11:08:15;803.03;;;747.57;;
18210;SDS011;9231;48.852;9.882;2022-07-22T11:10:46;816.10;;;759.53;;
18210;SDS011;9231;48.852;9.882;2022-07-22T11:13:12;823.83;;;767.83;;
18210;SDS011;9231;48.852;9.882;2022-07-22T11:15:39;829.30;;;773.07;;
18210;SDS011;9231;48.852;9.882;2022-07-22T11:18:06;836.47;;;779.90;;
18210;SDS011;9231;48.852;9.882;2022-07-22T11:20:33;838.73;;;782.00;;
18210;SDS011;9231;48.852;9.882;2022-07-22T11:22:59;833.17;;;776.67;;
18210;SDS011;9231;48.852;9.882;2022-07-22T11:25:26;844.57;;;787.67;;
18210;SDS011;9231;48.852;9.882;2022-07-22T11:27:53;843.53;;;786.90;;
18210;SDS011;9231;48.852;9.882;2022-07-22T11:30:22;852.77;;;795.83;;
18210;SDS011;9231;48.852;9.882;2022-07-22T11:32:49;863.53;;;806.03;;
18210;SDS011;9231;48.852;9.882;2022-07-22T11:35:17;864.73;;;807.57;;
18210;SDS011;9231;48.852;9.882;2022-07-22T11:37:43;877.17;;;819.50;;
18210;SDS011;9231;48.852;9.882;2022-07-22T11:40:20;875.63;;;818.07;;
18210;SDS011;9231;48.852;9.882;2022-07-22T11:42:59;886.00;;;828.37;;
18210;SDS011;9231;48.852;9.882;2022-07-22T11:45:26;871.00;;;813.77;;
18210;SDS011;9231;48.852;9.882;2022-07-22T11:47:52;871.60;;;814.13;;
18210;SDS011;9231;48.852;9.882;2022-07-22T11:50:30;889.83;;;831.60;;
18210;SDS011;9231;48.852;9.882;2022-07-22T11:52:56;898.30;;;840.33;;
18210;SDS011;9231;48.852;9.882;2022-07-22T11:55:22;923.37;;;864.17;;
18210;SDS011;9231;48.852;9.882;2022-07-22T11:57:49;939.67;;;880.03;;
18210;SDS011;9231;48.852;9.882;2022-07-22T12:00:16;949.30;;;889.20;;
18210;SDS011;9231;48.852;9.882;2022-07-22T12:02:43;952.90;;;892.80;;
18210;SDS011;9231;48.852;9.882;2022-07-22T12:05:09;942.27;;;882.10;;
18210;SDS011;9231;48.852;9.882;2022-07-22T12:07:37;958.73;;;898.20;;
18210;SDS011;9231;48.852;9.882;2022-07-22T12:10:04;970.70;;;909.53;;
18210;SDS011;9231;48.852;9.882;2022-07-22T12:12:38;974.83;;;914.17;;
18210;SDS011;9231;48.852;9.882;2022-07-22T12:15:05;989.57;;;928.10;;
18210;SDS011;9231;48.852;9.882;2022-07-22T12:17:32;1013.40;;;950.77;;
18210;SDS011;9231;48.852;9.882;2022-07-22T12:20:08;1011.57;;;949.17;;
18210;SDS011;9231;48.852;9.882;2022-07-22T12:22:35;1013.13;;;950.63;;
18210;SDS011;9231;48.852;9.882;2022-07-22T12:25:11;1024.10;;;960.93;;
18210;SDS011;9231;48.852;9.882;2022-07-22T12:27:37;1040.33;;;976.57;;
18210;SDS011;9231;48.852;9.882;2022-07-22T12:30:10;1052.03;;;986.97;;
18210;SDS011;9231;48.852;9.882;2022-07-22T12:32:37;1068.17;;;995.80;;
18210;SDS011;9231;48.852;9.882;2022-07-22T12:35:13;1078.57;;;999.10;;
18210;SDS011;9231;48.852;9.882;2022-07-22T12:37:41;1087.97;;;999.90;;
18210;SDS011;9231;48.852;9.882;2022-07-22T12:40:08;1107.97;;;999.90;;
18210;SDS011;9231;48.852;9.882;2022-07-22T12:42:38;1102.47;;;999.90;;
18210;SDS011;9231;48.852;9.882;2022-07-22T12:45:05;1122.23;;;999.90;;
18210;SDS011;9231;48.852;9.882;2022-07-22T12:47:42;1142.17;;;999.90;;
18210;SDS011;9231;48.852;9.882;2022-07-22T12:50:20;1155.17;;;999.90;;
18210;SDS011;9231;48.852;9.882;2022-07-22T12:52:46;1158.93;;;999.90;;
18210;SDS011;9231;48.852;9.882;2022-07-22T12:55:13;1164.20;;;999.90;;
18210;SDS011;9231;48.852;9.882;2022-07-22T12:57:41;1186.40;;;999.90;;
18210;SDS011;9231;48.852;9.882;2022-07-22T13:00:09;1201.67;;;999.90;;
18210;SDS011;9231;48.852;9.882;2022-07-22T13:02:35;1210.17;;;999.90;;
18210;SDS011;9231;48.852;9.882;2022-07-22T13:05:02;1220.30;;;999.90;;
18210;SDS011;9231;48.852;9.882;2022-07-22T13:07:32;1220.00;;;999.90;;
18210;SDS011;9231;48.852;9.882;2022-07-22T13:09:58;1227.33;;;999.90;;
18210;SDS011;9231;48.852;9.882;2022-07-22T13:12:25;1234.17;;;999.90;;
18210;SDS011;9231;48.852;9.882;2022-07-22T13:14:52;1238.17;;;999.90;;
18210;SDS011;9231;48.852;9.882;2022-07-22T13:17:19;1233.87;;;999.90;;
18210;SDS011;9231;48.852;9.882;2022-07-22T13:19:45;1241.60;;;999.90;;
18210;SDS011;9231;48.852;9.882;2022-07-22T13:22:12;1243.63;;;999.90;;
18210;SDS011;9231;48.852;9.882;2022-07-22T13:24:38;1250.47;;;999.90;;
18210;SDS011;9231;48.852;9.882;2022-07-22T13:27:05;1250.13;;;999.90;;
18210;SDS011;9231;48.852;9.882;2022-07-22T13:29:31;1244.40;;;999.90;;
18210;SDS011;9231;48.852;9.882;2022-07-22T13:31:59;1252.73;;;999.90;;
18210;SDS011;9231;48.852;9.882;2022-07-22T13:34:25;1262.23;;;999.90;;
18210;SDS011;9231;48.852;9.882;2022-07-22T13:36:52;1252.50;;;999.90;;
18210;SDS011;9231;48.852;9.882;2022-07-22T13:39:19;1259.50;;;999.90;;
18210;SDS011;9231;48.852;9.882;2022-07-22T13:41:45;1256.57;;;999.90;;
18210;SDS011;9231;48.852;9.882;2022-07-22T13:44:11;1256.13;;;999.90;;
18210;SDS011;9231;48.852;9.882;2022-07-22T13:46:38;1253.43;;;999.90;;
18210;SDS011;9231;48.852;9.882;2022-07-22T13:49:06;1260.90;;;999.90;;
18210;SDS011;9231;48.852;9.882;2022-07-22T13:51:32;1256.37;;;999.90;;
18210;SDS011;9231;48.852;9.882;2022-07-22T13:53:59;1258.00;;;999.90;;
18210;SDS011;9231;48.852;9.882;2022-07-22T13:56:25;1256.63;;;999.90;;
18210;SDS011;9231;48.852;9.882;2022-07-22T13:58:52;1255.70;;;999.90;;
18210;SDS011;9231;48.852;9.882;2022-07-22T14:01:18;1252.20;;;999.90;;
18210;SDS011;9231;48.852;9.882;2022-07-22T14:03:44;1255.80;;;999.90;;
18210;SDS011;9231;48.852;9.882;2022-07-22T14:06:12;1256.40;;;999.90;;
18210;SDS011;9231;48.852;9.882;2022-07-22T14:08:39;1268.50;;;999.90;;
18210;SDS011;9231;48.852;9.882;2022-07-22T14:11:05;1268.73;;;999.90;;
18210;SDS011;9231;48.852;9.882;2022-07-22T14:13:32;1274.80;;;999.90;;
18210;SDS011;9231;48.852;9.882;2022-07-22T14:15:58;1266.67;;;999.90;;
18210;SDS011;9231;48.852;9.882;2022-07-22T14:18:45;1272.93;;;999.90;;